sensor_id;sensor_type;location;lat;lon;timestamp;P1;durP1;ratioP1;P2;durP2;ratioP2
616;SDS011;295;51.628;7.520;2022-09-12T00:01:35;28.87;;;24.27;;
616;SDS011;295;51.628;7.520;2022-09-12T00:04:24;28.77;;;23.57;;
616;SDS011;295;51.628;7.520;2022-09-12T00:07:13;31.17;;;26.93;;
616;SDS011;295;51.628;7.520;2022-09-12T00:10:03;31.17;;;25.13;;
616;SDS011;295;51.628;7.520;2022-09-12T00:12:52;25.93;;;23.13;;
616;SDS011;295;51.628;7.520;2022-09-12T00:15:43;28.37;;;23.50;;
616;SDS011;295;51.628;7.520;2022-09-12T00:18:32;28.50;;;22.33;;
616;SDS011;295;51.628;7.520;2022-09-12T00:21:21;27.73;;;22.57;;
616;SDS011;295;51.628;7.520;2022-09-12T00:24:10;30.07;;;23.50;;
616;SDS011;295;51.628;7.520;2022-09-12T00:26:59;27.40;;;22.53;;
616;SDS011;295;51.628;7.520;2022-09-12T00:29:48;30.40;;;22.80;;
616;SDS011;295;51.628;7.520;2022-09-12T00:32:38;27.50;;;22.57;;
616;SDS011;295;51.628;7.520;2022-09-12T00:35:27;29.43;;;22.47;;
616;SDS011;295;51.628;7.520;2022-09-12T00:38:16;31.33;;;24.57;;
616;SDS011;295;51.628;7.520;2022-09-12T00:41:05;31.37;;;23.43;;
616;SDS011;295;51.628;7.520;2022-09-12T00:43:54;31.70;;;25.33;;
616;SDS011;295;51.628;7.520;2022-09-12T00:46:44;29.03;;;23.80;;
616;SDS011;295;51.628;7.520;2022-09-12T00:49:37;29.53;;;25.70;;
616;SDS011;295;51.628;7.520;2022-09-12T00:52:29;29.40;;;24.60;;
616;SDS011;295;51.628;7.520;2022-09-12T00:55:20;31.10;;;24.17;;
616;SDS011;295;51.628;7.520;2022-09-12T00:58:11;29.87;;;23.37;;
616;SDS011;295;51.628;7.520;2022-09-12T01:01:02;29.13;;;23.60;;
616;SDS011;295;51.628;7.520;2022-09-12T01:03:51;31.07;;;23.83;;
616;SDS011;295;51.628;7.520;2022-09-12T01:06:42;33.90;;;23.70;;
616;SDS011;295;51.628;7.520;2022-09-12T01:09:32;29.20;;;22.90;;
616;SDS011;295;51.628;7.520;2022-09-12T01:12:20;28.20;;;23.37;;
616;SDS011;295;51.628;7.520;2022-09-12T01:15:10;29.13;;;22.77;;
616;SDS011;295;51.628;7.520;2022-09-12T01:18:04;29.70;;;23.20;;
616;SDS011;295;51.628;7.520;2022-09-12T01:21:04;26.03;;;22.00;;
616;SDS011;295;51.628;7.520;2022-09-12T01:27:11;27.30;;;22.57;;
616;SDS011;295;51.628;7.520;2022-09-12T01:30:04;29.70;;;22.07;;
616;SDS011;295;51.628;7.520;2022-09-12T01:36:14;32.53;;;23.37;;
616;SDS011;295;51.628;7.520;2022-09-12T01:39:09;30.17;;;23.27;;
616;SDS011;295;51.628;7.520;2022-09-12T01:42:04;28.07;;;21.50;;
616;SDS011;295;51.628;7.520;2022-09-12T01:44:57;27.07;;;21.77;;
616;SDS011;295;51.628;7.520;2022-09-12T01:47:49;26.00;;;22.00;;
616;SDS011;295;51.628;7.520;2022-09-12T01:50:41;28.67;;;23.43;;
616;SDS011;295;51.628;7.520;2022-09-12T01:53:34;27.40;;;23.07;;
616;SDS011;295;51.628;7.520;2022-09-12T01:56:24;25.90;;;20.87;;
616;SDS011;295;51.628;7.520;2022-09-12T01:59:15;25.83;;;22.57;;
616;SDS011;295;51.628;7.520;2022-09-12T02:02:06;23.37;;;20.87;;
616;SDS011;295;51.628;7.520;2022-09-12T02:04:56;24.40;;;20.97;;
616;SDS011;295;51.628;7.520;2022-09-12T02:07:47;24.90;;;21.07;;
616;SDS011;295;51.628;7.520;2022-09-12T02:10:42;25.77;;;22.40;;
616;SDS011;295;51.628;7.520;2022-09-12T02:13:31;26.33;;;21.07;;
616;SDS011;295;51.628;7.520;2022-09-12T02:16:24;26.93;;;21.63;;
616;SDS011;295;51.628;7.520;2022-09-12T02:19:16;24.87;;;21.27;;
616;SDS011;295;51.628;7.520;2022-09-12T02:22:05;26.80;;;19.60;;
616;SDS011;295;51.628;7.520;2022-09-12T02:24:56;25.37;;;20.07;;
616;SDS011;295;51.628;7.520;2022-09-12T02:27:48;24.57;;;20.23;;
616;SDS011;295;51.628;7.520;2022-09-12T02:30:38;25.30;;;20.87;;
616;SDS011;295;51.628;7.520;2022-09-12T02:33:29;27.03;;;22.07;;
616;SDS011;295;51.628;7.520;2022-09-12T02:36:23;34.33;;;21.20;;
616;SDS011;295;51.628;7.520;2022-09-12T02:39:15;26.17;;;22.10;;
616;SDS011;295;51.628;7.520;2022-09-12T02:42:05;22.00;;;19.30;;
616;SDS011;295;51.628;7.520;2022-09-12T02:44:56;23.97;;;20.00;;
616;SDS011;295;51.628;7.520;2022-09-12T02:47:46;26.40;;;21.87;;
616;SDS011;295;51.628;7.520;2022-09-12T02:50:36;23.40;;;20.90;;
616;SDS011;295;51.628;7.520;2022-09-12T02:53:25;25.40;;;21.70;;
616;SDS011;295;51.628;7.520;2022-09-12T02:56:16;27.07;;;21.20;;
616;SDS011;295;51.628;7.520;2022-09-12T02:59:06;25.23;;;20.33;;
616;SDS011;295;51.628;7.520;2022-09-12T03:02:04;26.83;;;21.60;;
616;SDS011;295;51.628;7.520;2022-09-12T03:08:19;22.43;;;18.67;;
616;SDS011;295;51.628;7.520;2022-09-12T03:11:18;24.53;;;20.60;;
616;SDS011;295;51.628;7.520;2022-09-12T03:14:12;23.00;;;20.27;;
616;SDS011;295;51.628;7.520;2022-09-12T03:17:06;25.70;;;20.80;;
616;SDS011;295;51.628;7.520;2022-09-12T03:19:59;25.43;;;18.90;;
616;SDS011;295;51.628;7.520;2022-09-12T03:22:51;24.57;;;21.07;;
616;SDS011;295;51.628;7.520;2022-09-12T03:25:42;26.90;;;20.53;;
616;SDS011;295;51.628;7.520;2022-09-12T03:28:32;25.47;;;21.07;;
616;SDS011;295;51.628;7.520;2022-09-12T03:31:22;23.67;;;21.10;;
616;SDS011;295;51.628;7.520;2022-09-12T03:34:12;26.70;;;22.80;;
616;SDS011;295;51.628;7.520;2022-09-12T03:37:01;26.20;;;21.57;;
616;SDS011;295;51.628;7.520;2022-09-12T03:39:50;24.93;;;20.57;;
616;SDS011;295;51.628;7.520;2022-09-12T03:42:39;24.33;;;20.87;;
616;SDS011;295;51.628;7.520;2022-09-12T03:45:27;29.20;;;22.60;;
616;SDS011;295;51.628;7.520;2022-09-12T03:48:16;23.47;;;20.83;;
616;SDS011;295;51.628;7.520;2022-09-12T03:51:08;25.27;;;22.70;;
616;SDS011;295;51.628;7.520;2022-09-12T03:53:57;24.60;;;21.40;;
616;SDS011;295;51.628;7.520;2022-09-12T03:56:45;28.07;;;21.90;;
616;SDS011;295;51.628;7.520;2022-09-12T03:59:34;26.73;;;22.17;;
616;SDS011;295;51.628;7.520;2022-09-12T04:02:23;21.03;;;18.90;;
616;SDS011;295;51.628;7.520;2022-09-12T04:05:13;26.17;;;20.57;;
616;SDS011;295;51.628;7.520;2022-09-12T04:08:03;23.97;;;19.90;;
616;SDS011;295;51.628;7.520;2022-09-12T04:10:52;24.67;;;20.80;;
616;SDS011;295;51.628;7.520;2022-09-12T04:13:41;22.33;;;19.10;;
616;SDS011;295;51.628;7.520;2022-09-12T04:16:30;27.03;;;20.00;;
616;SDS011;295;51.628;7.520;2022-09-12T04:19:19;22.33;;;19.90;;
616;SDS011;295;51.628;7.520;2022-09-12T04:22:09;23.30;;;19.60;;
616;SDS011;295;51.628;7.520;2022-09-12T04:25:04;24.90;;;20.90;;
616;SDS011;295;51.628;7.520;2022-09-12T04:27:53;24.80;;;19.50;;
616;SDS011;295;51.628;7.520;2022-09-12T04:30:42;21.70;;;19.10;;
616;SDS011;295;51.628;7.520;2022-09-12T04:33:30;28.57;;;21.47;;
616;SDS011;295;51.628;7.520;2022-09-12T04:36:20;23.93;;;20.93;;
616;SDS011;295;51.628;7.520;2022-09-12T04:39:09;22.37;;;19.97;;
616;SDS011;295;51.628;7.520;2022-09-12T04:41:59;24.27;;;21.60;;
616;SDS011;295;51.628;7.520;2022-09-12T04:44:50;24.80;;;21.57;;
616;SDS011;295;51.628;7.520;2022-09-12T04:47:39;25.20;;;20.07;;
616;SDS011;295;51.628;7.520;2022-09-12T04:50:27;23.10;;;20.50;;
616;SDS011;295;51.628;7.520;2022-09-12T04:53:16;24.30;;;21.70;;
616;SDS011;295;51.628;7.520;2022-09-12T04:56:06;24.43;;;22.00;;
616;SDS011;295;51.628;7.520;2022-09-12T04:58:57;27.70;;;24.43;;
616;SDS011;295;51.628;7.520;2022-09-12T05:01:47;30.50;;;27.30;;
616;SDS011;295;51.628;7.520;2022-09-12T05:04:36;34.43;;;30.97;;
616;SDS011;295;51.628;7.520;2022-09-12T05:07:24;36.17;;;32.27;;
616;SDS011;295;51.628;7.520;2022-09-12T05:10:13;36.77;;;28.33;;
616;SDS011;295;51.628;7.520;2022-09-12T05:13:02;32.90;;;29.43;;
616;SDS011;295;51.628;7.520;2022-09-12T05:15:55;28.87;;;25.73;;
616;SDS011;295;51.628;7.520;2022-09-12T05:18:44;24.00;;;21.40;;
616;SDS011;295;51.628;7.520;2022-09-12T05:21:34;25.70;;;23.07;;
616;SDS011;295;51.628;7.520;2022-09-12T05:24:22;23.43;;;21.03;;
616;SDS011;295;51.628;7.520;2022-09-12T05:27:11;20.07;;;17.97;;
616;SDS011;295;51.628;7.520;2022-09-12T05:30:00;22.13;;;18.53;;
616;SDS011;295;51.628;7.520;2022-09-12T05:32:50;20.70;;;18.30;;
616;SDS011;295;51.628;7.520;2022-09-12T05:35:39;19.30;;;17.40;;
616;SDS011;295;51.628;7.520;2022-09-12T05:38:28;19.87;;;17.77;;
616;SDS011;295;51.628;7.520;2022-09-12T05:41:17;19.60;;;17.57;;
616;SDS011;295;51.628;7.520;2022-09-12T05:44:11;18.10;;;16.30;;
616;SDS011;295;51.628;7.520;2022-09-12T05:47:00;19.43;;;17.43;;
616;SDS011;295;51.628;7.520;2022-09-12T05:49:50;19.90;;;16.33;;
616;SDS011;295;51.628;7.520;2022-09-12T05:52:39;20.80;;;18.27;;
616;SDS011;295;51.628;7.520;2022-09-12T05:55:28;18.60;;;16.60;;
616;SDS011;295;51.628;7.520;2022-09-12T05:58:17;17.43;;;15.67;;
616;SDS011;295;51.628;7.520;2022-09-12T06:01:07;18.23;;;16.53;;
616;SDS011;295;51.628;7.520;2022-09-12T06:03:59;17.43;;;15.37;;
616;SDS011;295;51.628;7.520;2022-09-12T06:06:49;18.27;;;16.43;;
616;SDS011;295;51.628;7.520;2022-09-12T06:09:38;19.07;;;15.87;;
616;SDS011;295;51.628;7.520;2022-09-12T06:12:27;17.10;;;15.50;;
616;SDS011;295;51.628;7.520;2022-09-12T06:15:16;17.00;;;15.27;;
616;SDS011;295;51.628;7.520;2022-09-12T06:18:05;16.60;;;14.80;;
616;SDS011;295;51.628;7.520;2022-09-12T06:20:54;17.90;;;14.70;;
616;SDS011;295;51.628;7.520;2022-09-12T06:23:44;17.40;;;14.67;;
616;SDS011;295;51.628;7.520;2022-09-12T06:26:33;15.90;;;14.40;;
616;SDS011;295;51.628;7.520;2022-09-12T06:29:22;15.13;;;13.57;;
616;SDS011;295;51.628;7.520;2022-09-12T06:32:11;14.90;;;13.23;;
616;SDS011;295;51.628;7.520;2022-09-12T06:35:00;14.00;;;12.50;;
616;SDS011;295;51.628;7.520;2022-09-12T06:37:51;13.50;;;12.30;;
616;SDS011;295;51.628;7.520;2022-09-12T06:40:42;12.60;;;11.40;;
616;SDS011;295;51.628;7.520;2022-09-12T06:43:31;12.73;;;11.10;;
616;SDS011;295;51.628;7.520;2022-09-12T06:46:20;9.50;;;7.93;;
616;SDS011;295;51.628;7.520;2022-09-12T06:49:09;7.83;;;6.47;;
616;SDS011;295;51.628;7.520;2022-09-12T06:51:58;10.60;;;7.50;;
616;SDS011;295;51.628;7.520;2022-09-12T06:54:47;10.30;;;7.33;;
616;SDS011;295;51.628;7.520;2022-09-12T06:57:37;7.60;;;6.80;;
616;SDS011;295;51.628;7.520;2022-09-12T07:00:27;11.00;;;6.40;;
616;SDS011;295;51.628;7.520;2022-09-12T07:03:16;7.90;;;6.30;;
616;SDS011;295;51.628;7.520;2022-09-12T07:06:05;11.33;;;6.73;;
616;SDS011;295;51.628;7.520;2022-09-12T07:08:55;7.90;;;6.10;;
616;SDS011;295;51.628;7.520;2022-09-12T07:11:44;7.00;;;5.60;;
616;SDS011;295;51.628;7.520;2022-09-12T07:14:35;7.93;;;6.17;;
616;SDS011;295;51.628;7.520;2022-09-12T07:17:24;7.77;;;6.57;;
616;SDS011;295;51.628;7.520;2022-09-12T07:20:13;7.03;;;6.30;;
616;SDS011;295;51.628;7.520;2022-09-12T07:23:02;7.93;;;6.20;;
616;SDS011;295;51.628;7.520;2022-09-12T07:25:51;13.90;;;7.13;;
616;SDS011;295;51.628;7.520;2022-09-12T07:28:42;6.43;;;5.47;;
616;SDS011;295;51.628;7.520;2022-09-12T07:31:33;7.10;;;6.27;;
616;SDS011;295;51.628;7.520;2022-09-12T07:34:21;6.07;;;5.47;;
616;SDS011;295;51.628;7.520;2022-09-12T07:37:10;6.07;;;4.50;;
616;SDS011;295;51.628;7.520;2022-09-12T07:39:59;5.90;;;5.27;;
616;SDS011;295;51.628;7.520;2022-09-12T07:42:48;6.40;;;5.70;;
616;SDS011;295;51.628;7.520;2022-09-12T07:45:37;5.60;;;5.03;;
616;SDS011;295;51.628;7.520;2022-09-12T07:48:29;7.53;;;5.50;;
616;SDS011;295;51.628;7.520;2022-09-12T07:51:18;6.10;;;5.50;;
616;SDS011;295;51.628;7.520;2022-09-12T07:54:07;7.77;;;5.00;;
616;SDS011;295;51.628;7.520;2022-09-12T07:56:56;8.37;;;7.17;;
616;SDS011;295;51.628;7.520;2022-09-12T07:59:45;6.13;;;5.53;;
616;SDS011;295;51.628;7.520;2022-09-12T08:02:39;5.43;;;4.83;;
616;SDS011;295;51.628;7.520;2022-09-12T08:05:29;6.83;;;5.90;;
616;SDS011;295;51.628;7.520;2022-09-12T08:08:18;7.27;;;5.50;;
616;SDS011;295;51.628;7.520;2022-09-12T08:11:07;7.43;;;6.60;;
616;SDS011;295;51.628;7.520;2022-09-12T08:13:56;10.80;;;6.70;;
616;SDS011;295;51.628;7.520;2022-09-12T08:16:47;8.73;;;5.67;;
616;SDS011;295;51.628;7.520;2022-09-12T08:19:43;11.00;;;5.73;;
616;SDS011;295;51.628;7.520;2022-09-12T08:22:33;6.70;;;5.20;;
616;SDS011;295;51.628;7.520;2022-09-12T08:25:22;7.77;;;6.07;;
616;SDS011;295;51.628;7.520;2022-09-12T08:28:11;6.87;;;5.00;;
616;SDS011;295;51.628;7.520;2022-09-12T08:31:01;7.83;;;7.03;;
616;SDS011;295;51.628;7.520;2022-09-12T08:33:50;6.23;;;5.53;;
616;SDS011;295;51.628;7.520;2022-09-12T08:36:39;8.20;;;6.97;;
616;SDS011;295;51.628;7.520;2022-09-12T08:39:29;8.20;;;6.50;;
616;SDS011;295;51.628;7.520;2022-09-12T08:42:20;8.37;;;6.00;;
616;SDS011;295;51.628;7.520;2022-09-12T08:45:14;8.33;;;6.63;;
616;SDS011;295;51.628;7.520;2022-09-12T08:48:06;7.80;;;6.20;;
616;SDS011;295;51.628;7.520;2022-09-12T08:50:57;9.87;;;7.27;;
616;SDS011;295;51.628;7.520;2022-09-12T08:53:48;7.13;;;6.30;;
616;SDS011;295;51.628;7.520;2022-09-12T08:56:39;10.63;;;5.50;;
616;SDS011;295;51.628;7.520;2022-09-12T08:59:28;8.47;;;6.07;;
616;SDS011;295;51.628;7.520;2022-09-12T09:05:24;10.73;;;7.20;;
616;SDS011;295;51.628;7.520;2022-09-12T09:08:29;10.50;;;7.83;;
616;SDS011;295;51.628;7.520;2022-09-12T09:11:22;11.77;;;7.90;;
616;SDS011;295;51.628;7.520;2022-09-12T09:14:20;7.23;;;6.20;;
616;SDS011;295;51.628;7.520;2022-09-12T09:17:31;10.13;;;6.77;;
616;SDS011;295;51.628;7.520;2022-09-12T09:20:23;8.63;;;6.18;;
616;SDS011;295;51.628;7.520;2022-09-12T09:23:17;8.07;;;7.38;;
616;SDS011;295;51.628;7.520;2022-09-12T09:26:09;7.57;;;6.47;;
616;SDS011;295;51.628;7.520;2022-09-12T09:29:01;8.48;;;7.55;;
616;SDS011;295;51.628;7.520;2022-09-12T09:31:54;7.68;;;6.60;;
616;SDS011;295;51.628;7.520;2022-09-12T09:34:44;9.57;;;7.72;;
616;SDS011;295;51.628;7.520;2022-09-12T09:37:35;7.78;;;7.03;;
616;SDS011;295;51.628;7.520;2022-09-12T09:40:28;7.75;;;6.95;;
616;SDS011;295;51.628;7.520;2022-09-12T09:43:20;8.27;;;6.93;;
616;SDS011;295;51.628;7.520;2022-09-12T09:46:09;8.68;;;7.15;;
616;SDS011;295;51.628;7.520;2022-09-12T09:49:01;9.52;;;6.65;;
616;SDS011;295;51.628;7.520;2022-09-12T09:51:51;7.40;;;6.60;;
616;SDS011;295;51.628;7.520;2022-09-12T09:54:45;7.78;;;7.07;;
616;SDS011;295;51.628;7.520;2022-09-12T09:57:39;8.05;;;7.35;;
616;SDS011;295;51.628;7.520;2022-09-12T10:00:29;8.27;;;7.50;;
616;SDS011;295;51.628;7.520;2022-09-12T10:03:27;7.97;;;7.28;;
616;SDS011;295;51.628;7.520;2022-09-12T10:06:22;9.50;;;8.27;;
616;SDS011;295;51.628;7.520;2022-09-12T10:09:17;7.85;;;7.07;;
616;SDS011;295;51.628;7.520;2022-09-12T10:12:18;8.07;;;7.38;;
616;SDS011;295;51.628;7.520;2022-09-12T10:15:15;9.18;;;6.85;;
616;SDS011;295;51.628;7.520;2022-09-12T10:18:06;7.68;;;6.95;;
616;SDS011;295;51.628;7.520;2022-09-12T10:20:55;7.40;;;6.68;;
616;SDS011;295;51.628;7.520;2022-09-12T10:23:46;7.63;;;6.93;;
616;SDS011;295;51.628;7.520;2022-09-12T10:26:36;6.80;;;6.10;;
616;SDS011;295;51.628;7.520;2022-09-12T10:29:26;8.82;;;7.88;;
616;SDS011;295;51.628;7.520;2022-09-12T10:32:21;10.25;;;7.13;;
616;SDS011;295;51.628;7.520;2022-09-12T10:35:17;8.27;;;6.88;;
616;SDS011;295;51.628;7.520;2022-09-12T10:38:10;7.30;;;5.90;;
616;SDS011;295;51.628;7.520;2022-09-12T10:41:03;8.23;;;7.43;;
616;SDS011;295;51.628;7.520;2022-09-12T10:43:52;9.20;;;7.13;;
616;SDS011;295;51.628;7.520;2022-09-12T10:46:54;6.47;;;5.68;;
616;SDS011;295;51.628;7.520;2022-09-12T10:49:43;6.10;;;5.60;;
616;SDS011;295;51.628;7.520;2022-09-12T10:52:32;5.15;;;4.75;;
616;SDS011;295;51.628;7.520;2022-09-12T10:55:24;11.25;;;5.20;;
616;SDS011;295;51.628;7.520;2022-09-12T10:58:29;6.05;;;5.45;;
616;SDS011;295;51.628;7.520;2022-09-12T11:01:25;4.70;;;4.15;;
616;SDS011;295;51.628;7.520;2022-09-12T11:04:26;5.40;;;4.78;;
616;SDS011;295;51.628;7.520;2022-09-12T11:07:20;5.20;;;4.60;;
616;SDS011;295;51.628;7.520;2022-09-12T11:10:17;4.93;;;4.40;;
616;SDS011;295;51.628;7.520;2022-09-12T11:13:13;4.70;;;4.30;;
616;SDS011;295;51.628;7.520;2022-09-12T11:16:08;4.80;;;4.28;;
616;SDS011;295;51.628;7.520;2022-09-12T11:19:09;4.78;;;4.38;;
616;SDS011;295;51.628;7.520;2022-09-12T11:22:04;5.10;;;4.65;;
616;SDS011;295;51.628;7.520;2022-09-12T11:28:13;7.35;;;3.88;;
616;SDS011;295;51.628;7.520;2022-09-12T11:31:29;3.75;;;3.47;;
616;SDS011;295;51.628;7.520;2022-09-12T11:34:25;3.47;;;3.17;;
616;SDS011;295;51.628;7.520;2022-09-12T11:37:25;5.03;;;3.35;;
616;SDS011;295;51.628;7.520;2022-09-12T11:40:26;3.70;;;3.40;;
616;SDS011;295;51.628;7.520;2022-09-12T11:43:20;3.33;;;3.03;;
616;SDS011;295;51.628;7.520;2022-09-12T11:46:13;3.65;;;3.30;;
616;SDS011;295;51.628;7.520;2022-09-12T11:49:08;3.92;;;3.63;;
616;SDS011;295;51.628;7.520;2022-09-12T11:52:02;3.40;;;3.20;;
616;SDS011;295;51.628;7.520;2022-09-12T11:54:55;4.25;;;3.55;;
616;SDS011;295;51.628;7.520;2022-09-12T11:57:47;3.40;;;3.20;;
616;SDS011;295;51.628;7.520;2022-09-12T12:00:38;4.05;;;3.00;;
616;SDS011;295;51.628;7.520;2022-09-12T12:03:30;3.05;;;2.17;;
616;SDS011;295;51.628;7.520;2022-09-12T12:06:23;3.55;;;3.33;;
616;SDS011;295;51.628;7.520;2022-09-12T12:09:15;2.75;;;2.55;;
616;SDS011;295;51.628;7.520;2022-09-12T12:12:06;3.45;;;3.15;;
616;SDS011;295;51.628;7.520;2022-09-12T12:14:56;2.75;;;2.55;;
616;SDS011;295;51.628;7.520;2022-09-12T12:17:52;4.15;;;3.47;;
616;SDS011;295;51.628;7.520;2022-09-12T12:20:47;3.03;;;2.83;;
616;SDS011;295;51.628;7.520;2022-09-12T12:23:38;3.00;;;2.78;;
616;SDS011;295;51.628;7.520;2022-09-12T12:26:40;2.67;;;2.47;;
616;SDS011;295;51.628;7.520;2022-09-12T12:29:35;2.85;;;2.65;;
616;SDS011;295;51.628;7.520;2022-09-12T12:32:29;3.25;;;2.67;;
616;SDS011;295;51.628;7.520;2022-09-12T12:35:38;3.53;;;3.10;;
616;SDS011;295;51.628;7.520;2022-09-12T12:38:28;4.80;;;3.35;;
616;SDS011;295;51.628;7.520;2022-09-12T12:44:49;3.63;;;2.70;;
616;SDS011;295;51.628;7.520;2022-09-12T12:47:39;2.35;;;2.15;;
616;SDS011;295;51.628;7.520;2022-09-12T12:50:29;3.08;;;2.78;;
616;SDS011;295;51.628;7.520;2022-09-12T12:53:20;2.92;;;2.50;;
616;SDS011;295;51.628;7.520;2022-09-12T12:56:24;2.80;;;2.60;;
616;SDS011;295;51.628;7.520;2022-09-12T12:59:15;2.65;;;2.20;;
616;SDS011;295;51.628;7.520;2022-09-12T13:02:13;3.40;;;2.22;;
616;SDS011;295;51.628;7.520;2022-09-12T13:05:12;3.88;;;3.05;;
616;SDS011;295;51.628;7.520;2022-09-12T13:08:05;2.80;;;2.60;;
616;SDS011;295;51.628;7.520;2022-09-12T13:10:57;3.78;;;3.22;;
616;SDS011;295;51.628;7.520;2022-09-12T13:13:48;3.20;;;2.90;;
616;SDS011;295;51.628;7.520;2022-09-12T13:16:38;2.83;;;2.63;;
616;SDS011;295;51.628;7.520;2022-09-12T13:19:29;3.10;;;2.90;;
616;SDS011;295;51.628;7.520;2022-09-12T13:22:20;2.97;;;2.78;;
616;SDS011;295;51.628;7.520;2022-09-12T13:25:20;4.97;;;2.78;;
616;SDS011;295;51.628;7.520;2022-09-12T13:28:14;3.33;;;3.10;;
616;SDS011;295;51.628;7.520;2022-09-12T13:31:06;2.70;;;2.50;;
616;SDS011;295;51.628;7.520;2022-09-12T13:33:59;3.03;;;2.60;;
616;SDS011;295;51.628;7.520;2022-09-12T13:37:01;3.38;;;2.83;;
616;SDS011;295;51.628;7.520;2022-09-12T13:39:55;2.83;;;2.63;;
616;SDS011;295;51.628;7.520;2022-09-12T13:42:48;3.33;;;3.10;;
616;SDS011;295;51.628;7.520;2022-09-12T13:45:41;2.75;;;2.50;;
616;SDS011;295;51.628;7.520;2022-09-12T13:48:31;3.08;;;2.88;;
616;SDS011;295;51.628;7.520;2022-09-12T13:51:21;2.83;;;2.63;;
616;SDS011;295;51.628;7.520;2022-09-12T13:54:14;2.38;;;2.17;;
616;SDS011;295;51.628;7.520;2022-09-12T13:57:23;2.60;;;2.40;;
616;SDS011;295;51.628;7.520;2022-09-12T14:00:15;3.72;;;2.58;;
616;SDS011;295;51.628;7.520;2022-09-12T14:03:13;2.88;;;2.58;;
616;SDS011;295;51.628;7.520;2022-09-12T14:06:33;2.58;;;2.38;;
616;SDS011;295;51.628;7.520;2022-09-12T14:09:25;2.92;;;2.63;;
616;SDS011;295;51.628;7.520;2022-09-12T14:12:18;3.10;;;2.80;;
616;SDS011;295;51.628;7.520;2022-09-12T14:15:15;3.45;;;3.15;;
616;SDS011;295;51.628;7.520;2022-09-12T14:18:05;2.78;;;2.58;;
616;SDS011;295;51.628;7.520;2022-09-12T14:20:55;3.60;;;2.95;;
616;SDS011;295;51.628;7.520;2022-09-12T14:23:46;2.83;;;2.63;;
616;SDS011;295;51.628;7.520;2022-09-12T14:26:37;3.60;;;3.30;;
616;SDS011;295;51.628;7.520;2022-09-12T14:29:27;3.00;;;2.70;;
616;SDS011;295;51.628;7.520;2022-09-12T14:32:19;2.95;;;2.75;;
616;SDS011;295;51.628;7.520;2022-09-12T14:35:18;3.10;;;2.42;;
616;SDS011;295;51.628;7.520;2022-09-12T14:38:07;3.30;;;2.90;;
616;SDS011;295;51.628;7.520;2022-09-12T14:40:58;2.50;;;2.30;;
616;SDS011;295;51.628;7.520;2022-09-12T14:43:50;5.00;;;2.65;;
616;SDS011;295;51.628;7.520;2022-09-12T14:46:40;3.53;;;2.58;;
616;SDS011;295;51.628;7.520;2022-09-12T14:49:30;2.95;;;2.65;;
616;SDS011;295;51.628;7.520;2022-09-12T14:52:21;5.30;;;3.03;;
616;SDS011;295;51.628;7.520;2022-09-12T14:55:19;3.90;;;2.80;;
616;SDS011;295;51.628;7.520;2022-09-12T14:58:13;2.63;;;2.42;;
616;SDS011;295;51.628;7.520;2022-09-12T15:07:22;2.22;;;2.03;;
616;SDS011;295;51.628;7.520;2022-09-12T15:10:15;3.30;;;3.00;;
616;SDS011;295;51.628;7.520;2022-09-12T15:13:14;2.90;;;2.70;;
616;SDS011;295;51.628;7.520;2022-09-12T15:16:06;2.55;;;2.35;;
616;SDS011;295;51.628;7.520;2022-09-12T15:18:56;3.40;;;2.22;;
616;SDS011;295;51.628;7.520;2022-09-12T15:21:45;2.60;;;2.40;;
616;SDS011;295;51.628;7.520;2022-09-12T15:24:35;3.08;;;2.78;;
616;SDS011;295;51.628;7.520;2022-09-12T15:27:25;4.85;;;2.50;;
616;SDS011;295;51.628;7.520;2022-09-12T15:30:14;2.60;;;2.38;;
616;SDS011;295;51.628;7.520;2022-09-12T15:33:03;2.83;;;2.60;;
616;SDS011;295;51.628;7.520;2022-09-12T15:35:52;2.55;;;2.35;;
616;SDS011;295;51.628;7.520;2022-09-12T15:38:41;2.40;;;2.20;;
616;SDS011;295;51.628;7.520;2022-09-12T15:41:32;3.38;;;3.13;;
616;SDS011;295;51.628;7.520;2022-09-12T15:44:22;3.45;;;2.50;;
616;SDS011;295;51.628;7.520;2022-09-12T15:47:12;2.95;;;2.75;;
616;SDS011;295;51.628;7.520;2022-09-12T15:50:01;2.58;;;2.38;;
616;SDS011;295;51.628;7.520;2022-09-12T15:52:49;2.53;;;2.33;;
616;SDS011;295;51.628;7.520;2022-09-12T15:55:38;3.40;;;2.97;;
616;SDS011;295;51.628;7.520;2022-09-12T15:58:29;3.33;;;2.50;;
616;SDS011;295;51.628;7.520;2022-09-12T16:01:17;4.18;;;2.92;;
616;SDS011;295;51.628;7.520;2022-09-12T16:04:16;2.15;;;1.95;;
616;SDS011;295;51.628;7.520;2022-09-12T16:07:06;3.22;;;2.60;;
616;SDS011;295;51.628;7.520;2022-09-12T16:09:55;2.63;;;2.20;;
616;SDS011;295;51.628;7.520;2022-09-12T16:12:44;2.80;;;2.20;;
616;SDS011;295;51.628;7.520;2022-09-12T16:15:34;2.70;;;2.30;;
616;SDS011;295;51.628;7.520;2022-09-12T16:18:23;2.63;;;2.42;;
616;SDS011;295;51.628;7.520;2022-09-12T16:21:12;3.03;;;2.60;;
616;SDS011;295;51.628;7.520;2022-09-12T16:24:02;2.37;;;2.13;;
616;SDS011;295;51.628;7.520;2022-09-12T16:26:51;2.53;;;2.30;;
616;SDS011;295;51.628;7.520;2022-09-12T16:29:46;2.73;;;2.43;;
616;SDS011;295;51.628;7.520;2022-09-12T16:32:36;3.20;;;2.00;;
616;SDS011;295;51.628;7.520;2022-09-12T16:35:25;2.50;;;2.30;;
616;SDS011;295;51.628;7.520;2022-09-12T16:38:14;2.60;;;2.33;;
616;SDS011;295;51.628;7.520;2022-09-12T16:41:04;2.13;;;1.93;;
616;SDS011;295;51.628;7.520;2022-09-12T16:43:53;3.40;;;2.13;;
616;SDS011;295;51.628;7.520;2022-09-12T16:46:42;2.40;;;2.07;;
616;SDS011;295;51.628;7.520;2022-09-12T16:49:33;2.43;;;2.20;;
616;SDS011;295;51.628;7.520;2022-09-12T16:52:22;2.47;;;2.20;;
616;SDS011;295;51.628;7.520;2022-09-12T16:55:11;2.60;;;2.40;;
616;SDS011;295;51.628;7.520;2022-09-12T16:57:59;3.27;;;1.83;;
616;SDS011;295;51.628;7.520;2022-09-12T17:00:48;2.73;;;2.30;;
616;SDS011;295;51.628;7.520;2022-09-12T17:03:38;3.20;;;2.30;;
616;SDS011;295;51.628;7.520;2022-09-12T17:06:28;2.90;;;2.43;;
616;SDS011;295;51.628;7.520;2022-09-12T17:09:18;3.90;;;1.93;;
616;SDS011;295;51.628;7.520;2022-09-12T17:12:07;4.40;;;2.50;;
616;SDS011;295;51.628;7.520;2022-09-12T17:14:56;1.90;;;1.70;;
616;SDS011;295;51.628;7.520;2022-09-12T17:17:45;2.03;;;1.70;;
616;SDS011;295;51.628;7.520;2022-09-12T17:20:34;3.03;;;2.03;;
616;SDS011;295;51.628;7.520;2022-09-12T17:23:24;2.33;;;1.90;;
616;SDS011;295;51.628;7.520;2022-09-12T17:26:13;3.53;;;2.37;;
616;SDS011;295;51.628;7.520;2022-09-12T17:29:02;4.03;;;1.90;;
616;SDS011;295;51.628;7.520;2022-09-12T17:31:51;3.40;;;2.73;;
616;SDS011;295;51.628;7.520;2022-09-12T17:34:41;3.33;;;2.10;;
616;SDS011;295;51.628;7.520;2022-09-12T17:37:30;4.77;;;2.50;;
616;SDS011;295;51.628;7.520;2022-09-12T17:40:21;2.50;;;1.90;;
616;SDS011;295;51.628;7.520;2022-09-12T17:43:29;3.53;;;2.20;;
616;SDS011;295;51.628;7.520;2022-09-12T17:46:19;2.53;;;2.33;;
616;SDS011;295;51.628;7.520;2022-09-12T17:49:09;4.10;;;3.20;;
616;SDS011;295;51.628;7.520;2022-09-12T17:51:59;4.60;;;2.90;;
616;SDS011;295;51.628;7.520;2022-09-12T17:54:48;4.53;;;2.93;;
616;SDS011;295;51.628;7.520;2022-09-12T17:57:38;2.40;;;2.10;;
616;SDS011;295;51.628;7.520;2022-09-12T18:00:27;3.40;;;2.73;;
616;SDS011;295;51.628;7.520;2022-09-12T18:03:30;3.80;;;3.03;;
616;SDS011;295;51.628;7.520;2022-09-12T18:06:21;3.17;;;2.40;;
616;SDS011;295;51.628;7.520;2022-09-12T18:09:10;9.63;;;4.10;;
616;SDS011;295;51.628;7.520;2022-09-12T18:11:59;5.50;;;2.80;;
616;SDS011;295;51.628;7.520;2022-09-12T18:14:49;9.97;;;3.60;;
616;SDS011;295;51.628;7.520;2022-09-12T18:17:38;3.23;;;2.60;;
616;SDS011;295;51.628;7.520;2022-09-12T18:20:27;6.13;;;2.77;;
616;SDS011;295;51.628;7.520;2022-09-12T18:23:16;3.43;;;2.70;;
616;SDS011;295;51.628;7.520;2022-09-12T18:26:05;6.13;;;3.97;;
616;SDS011;295;51.628;7.520;2022-09-12T18:28:54;3.40;;;3.10;;
616;SDS011;295;51.628;7.520;2022-09-12T18:31:45;4.97;;;3.90;;
616;SDS011;295;51.628;7.520;2022-09-12T18:34:34;4.13;;;3.73;;